sensor_id;sensor_type;location;lat;lon;timestamp;temperature;humidity
35325;DHT22;35135;47.510;19.036;2023-02-01T00:02:09;19.80;48.80
35325;DHT22;35135;47.510;19.036;2023-02-01T00:04:34;19.80;48.80
35325;DHT22;35135;47.510;19.036;2023-02-01T00:07:00;19.80;48.80
35325;DHT22;35135;47.510;19.036;2023-02-01T00:09:26;19.80;48.80
35325;DHT22;35135;47.510;19.036;2023-02-01T00:11:52;19.70;48.70
35325;DHT22;35135;47.510;19.036;2023-02-01T00:14:18;19.80;48.80
35325;DHT22;35135;47.510;19.036;2023-02-01T00:16:43;19.70;48.70
35325;DHT22;35135;47.510;19.036;2023-02-01T00:19:14;19.70;48.70
35325;DHT22;35135;47.510;19.036;2023-02-01T00:21:40;19.80;48.80
35325;DHT22;35135;47.510;19.036;2023-02-01T00:24:07;19.80;48.80
35325;DHT22;35135;47.510;19.036;2023-02-01T00:26:38;19.70;48.70
35325;DHT22;35135;47.510;19.036;2023-02-01T00:29:08;19.80;48.70
35325;DHT22;35135;47.510;19.036;2023-02-01T00:31:34;19.70;48.70
35325;DHT22;35135;47.510;19.036;2023-02-01T00:34:00;19.70;48.60
35325;DHT22;35135;47.510;19.036;2023-02-01T00:36:25;19.70;48.60
35325;DHT22;35135;47.510;19.036;2023-02-01T00:38:51;19.70;48.60
35325;DHT22;35135;47.510;19.036;2023-02-01T00:41:19;19.70;48.60
35325;DHT22;35135;47.510;19.036;2023-02-01T00:43:46;19.70;48.60
35325;DHT22;35135;47.510;19.036;2023-02-01T00:46:13;19.70;48.60
35325;DHT22;35135;47.510;19.036;2023-02-01T00:48:40;19.70;48.60
35325;DHT22;35135;47.510;19.036;2023-02-01T00:51:09;19.70;48.60
35325;DHT22;35135;47.510;19.036;2023-02-01T00:53:36;19.70;48.60
35325;DHT22;35135;47.510;19.036;2023-02-01T00:56:02;19.70;48.60
35325;DHT22;35135;47.510;19.036;2023-02-01T00:58:28;19.70;48.60
35325;DHT22;35135;47.510;19.036;2023-02-01T01:03:34;19.70;48.60
35325;DHT22;35135;47.510;19.036;2023-02-01T01:06:02;19.70;48.50
35325;DHT22;35135;47.510;19.036;2023-02-01T01:08:28;19.70;48.60
35325;DHT22;35135;47.510;19.036;2023-02-01T01:10:54;19.70;48.60
35325;DHT22;35135;47.510;19.036;2023-02-01T01:13:20;19.70;48.60
35325;DHT22;35135;47.510;19.036;2023-02-01T01:15:46;19.70;48.60
35325;DHT22;35135;47.510;19.036;2023-02-01T01:18:12;19.70;48.50
35325;DHT22;35135;47.510;19.036;2023-02-01T01:20:39;19.70;48.50
35325;DHT22;35135;47.510;19.036;2023-02-01T01:23:06;19.70;48.50
35325;DHT22;35135;47.510;19.036;2023-02-01T01:25:31;19.70;48.50
35325;DHT22;35135;47.510;19.036;2023-02-01T01:27:57;19.70;48.50
35325;DHT22;35135;47.510;19.036;2023-02-01T01:30:23;19.70;48.50
35325;DHT22;35135;47.510;19.036;2023-02-01T01:32:49;19.70;48.50
35325;DHT22;35135;47.510;19.036;2023-02-01T01:35:14;19.70;48.50
35325;DHT22;35135;47.510;19.036;2023-02-01T01:37:40;19.70;48.40
35325;DHT22;35135;47.510;19.036;2023-02-01T01:40:07;19.70;48.50
35325;DHT22;35135;47.510;19.036;2023-02-01T01:42:41;19.70;48.50
35325;DHT22;35135;47.510;19.036;2023-02-01T01:48:00;19.70;48.40
35325;DHT22;35135;47.510;19.036;2023-02-01T01:51:06;19.70;48.50
35325;DHT22;35135;47.510;19.036;2023-02-01T01:53:38;19.70;48.50
35325;DHT22;35135;47.510;19.036;2023-02-01T01:56:06;19.70;48.50
35325;DHT22;35135;47.510;19.036;2023-02-01T01:58:33;19.70;48.50
35325;DHT22;35135;47.510;19.036;2023-02-01T02:00:59;19.70;48.50
35325;DHT22;35135;47.510;19.036;2023-02-01T02:03:35;19.70;48.40
35325;DHT22;35135;47.510;19.036;2023-02-01T02:06:04;19.70;48.50
35325;DHT22;35135;47.510;19.036;2023-02-01T02:08:33;19.70;48.50
35325;DHT22;35135;47.510;19.036;2023-02-01T02:10:59;19.70;48.40
35325;DHT22;35135;47.510;19.036;2023-02-01T02:13:32;19.70;48.40
35325;DHT22;35135;47.510;19.036;2023-02-01T02:33:36;19.70;48.40
35325;DHT22;35135;47.510;19.036;2023-02-01T02:36:19;19.70;48.40
35325;DHT22;35135;47.510;19.036;2023-02-01T02:39:06;19.70;48.40
35325;DHT22;35135;47.510;19.036;2023-02-01T02:44:57;19.70;48.40
35325;DHT22;35135;47.510;19.036;2023-02-01T02:50:36;19.60;48.40
35325;DHT22;35135;47.510;19.036;2023-02-01T02:56:15;19.60;48.40
35325;DHT22;35135;47.510;19.036;2023-02-01T02:59:01;19.60;48.40
35325;DHT22;35135;47.510;19.036;2023-02-01T03:01:48;19.60;48.30
35325;DHT22;35135;47.510;19.036;2023-02-01T03:04:32;19.60;48.30
35325;DHT22;35135;47.510;19.036;2023-02-01T03:07:15;19.60;48.30
35325;DHT22;35135;47.510;19.036;2023-02-01T03:10:03;19.60;48.30
35325;DHT22;35135;47.510;19.036;2023-02-01T03:12:34;19.60;48.40
35325;DHT22;35135;47.510;19.036;2023-02-01T03:15:39;19.60;48.30
35325;DHT22;35135;47.510;19.036;2023-02-01T03:20:51;19.60;48.30
35325;DHT22;35135;47.510;19.036;2023-02-01T03:23:20;19.60;48.30
35325;DHT22;35135;47.510;19.036;2023-02-01T03:25:48;19.60;48.10
35325;DHT22;35135;47.510;19.036;2023-02-01T03:28:17;19.60;48.30
35325;DHT22;35135;47.510;19.036;2023-02-01T03:30:48;19.60;48.30
35325;DHT22;35135;47.510;19.036;2023-02-01T03:33:21;19.60;48.10
35325;DHT22;35135;47.510;19.036;2023-02-01T03:36:05;19.60;48.30
35325;DHT22;35135;47.510;19.036;2023-02-01T03:41:37;19.60;48.20
35325;DHT22;35135;47.510;19.036;2023-02-01T03:44:34;19.60;48.10
35325;DHT22;35135;47.510;19.036;2023-02-01T03:49:49;19.60;48.20
35325;DHT22;35135;47.510;19.036;2023-02-01T03:52:32;19.60;48.10
35325;DHT22;35135;47.510;19.036;2023-02-01T03:55:02;19.60;48.10
35325;DHT22;35135;47.510;19.036;2023-02-01T03:57:32;19.60;48.10
35325;DHT22;35135;47.510;19.036;2023-02-01T04:00:28;19.50;48.10
35325;DHT22;35135;47.510;19.036;2023-02-01T04:02:54;19.60;48.10
35325;DHT22;35135;47.510;19.036;2023-02-01T04:05:21;19.60;48.00
35325;DHT22;35135;47.510;19.036;2023-02-01T04:07:47;19.50;48.00
35325;DHT22;35135;47.510;19.036;2023-02-01T04:10:13;19.50;47.90
35325;DHT22;35135;47.510;19.036;2023-02-01T04:12:39;19.50;47.90
35325;DHT22;35135;47.510;19.036;2023-02-01T04:15:05;19.50;48.00
35325;DHT22;35135;47.510;19.036;2023-02-01T04:17:31;19.50;47.90
35325;DHT22;35135;47.510;19.036;2023-02-01T04:19:57;19.50;47.90
35325;DHT22;35135;47.510;19.036;2023-02-01T04:22:23;19.50;47.90
35325;DHT22;35135;47.510;19.036;2023-02-01T04:24:48;19.50;47.90
35325;DHT22;35135;47.510;19.036;2023-02-01T04:27:14;19.50;47.70
35325;DHT22;35135;47.510;19.036;2023-02-01T04:29:40;19.50;47.80
35325;DHT22;35135;47.510;19.036;2023-02-01T04:32:06;19.50;47.70
35325;DHT22;35135;47.510;19.036;2023-02-01T04:34:32;19.50;47.80
35325;DHT22;35135;47.510;19.036;2023-02-01T04:36:57;19.50;47.70
35325;DHT22;35135;47.510;19.036;2023-02-01T04:39:23;19.50;47.70
35325;DHT22;35135;47.510;19.036;2023-02-01T04:41:49;19.50;47.70
35325;DHT22;35135;47.510;19.036;2023-02-01T04:44:16;19.50;47.70
35325;DHT22;35135;47.510;19.036;2023-02-01T04:46:42;19.50;47.60
35325;DHT22;35135;47.510;19.036;2023-02-01T04:49:12;19.50;47.70
35325;DHT22;35135;47.510;19.036;2023-02-01T04:51:39;19.50;47.80
35325;DHT22;35135;47.510;19.036;2023-02-01T04:54:04;19.50;47.70
35325;DHT22;35135;47.510;19.036;2023-02-01T04:56:30;19.50;47.70
35325;DHT22;35135;47.510;19.036;2023-02-01T04:58:56;19.50;47.70
35325;DHT22;35135;47.510;19.036;2023-02-01T05:01:22;19.50;47.70
35325;DHT22;35135;47.510;19.036;2023-02-01T05:03:50;19.50;47.80
35325;DHT22;35135;47.510;19.036;2023-02-01T05:06:16;19.50;47.70
35325;DHT22;35135;47.510;19.036;2023-02-01T05:08:41;19.50;47.70
35325;DHT22;35135;47.510;19.036;2023-02-01T05:11:07;19.50;47.70
35325;DHT22;35135;47.510;19.036;2023-02-01T05:13:52;19.50;47.60
35325;DHT22;35135;47.510;19.036;2023-02-01T05:16:18;19.50;47.70
35325;DHT22;35135;47.510;19.036;2023-02-01T05:18:44;19.60;47.90
35325;DHT22;35135;47.510;19.036;2023-02-01T05:21:10;19.60;47.90
35325;DHT22;35135;47.510;19.036;2023-02-01T05:23:36;19.60;47.80
35325;DHT22;35135;47.510;19.036;2023-02-01T05:26:21;19.70;47.70
35325;DHT22;35135;47.510;19.036;2023-02-01T05:28:47;19.80;47.60
35325;DHT22;35135;47.510;19.036;2023-02-01T05:31:13;19.90;47.60
35325;DHT22;35135;47.510;19.036;2023-02-01T05:33:38;20.00;47.30
35325;DHT22;35135;47.510;19.036;2023-02-01T05:36:04;20.00;47.20
35325;DHT22;35135;47.510;19.036;2023-02-01T05:38:30;20.10;47.00
35325;DHT22;35135;47.510;19.036;2023-02-01T05:40:56;20.10;46.80
35325;DHT22;35135;47.510;19.036;2023-02-01T05:43:22;20.10;46.70
35325;DHT22;35135;47.510;19.036;2023-02-01T05:45:47;20.20;46.60
35325;DHT22;35135;47.510;19.036;2023-02-01T05:48:13;20.20;46.60
35325;DHT22;35135;47.510;19.036;2023-02-01T05:50:39;20.20;46.60
35325;DHT22;35135;47.510;19.036;2023-02-01T05:53:04;20.10;46.70
35325;DHT22;35135;47.510;19.036;2023-02-01T05:55:32;20.10;46.70
35325;DHT22;35135;47.510;19.036;2023-02-01T05:57:58;20.10;46.70
35325;DHT22;35135;47.510;19.036;2023-02-01T06:00:23;20.10;46.80
35325;DHT22;35135;47.510;19.036;2023-02-01T06:02:49;20.10;46.80
35325;DHT22;35135;47.510;19.036;2023-02-01T06:05:15;20.00;46.80
35325;DHT22;35135;47.510;19.036;2023-02-01T06:07:41;20.10;46.80
35325;DHT22;35135;47.510;19.036;2023-02-01T06:10:08;20.00;46.80
35325;DHT22;35135;47.510;19.036;2023-02-01T06:12:34;20.00;46.90
35325;DHT22;35135;47.510;19.036;2023-02-01T06:15:00;20.00;47.00
35325;DHT22;35135;47.510;19.036;2023-02-01T06:17:25;20.00;47.00
35325;DHT22;35135;47.510;19.036;2023-02-01T06:19:51;20.00;46.90
35325;DHT22;35135;47.510;19.036;2023-02-01T06:22:17;19.90;46.90
35325;DHT22;35135;47.510;19.036;2023-02-01T06:24:43;19.90;46.90
35325;DHT22;35135;47.510;19.036;2023-02-01T06:27:09;19.90;47.10
35325;DHT22;35135;47.510;19.036;2023-02-01T06:29:35;19.90;47.20
35325;DHT22;35135;47.510;19.036;2023-02-01T06:32:01;19.90;47.20
35325;DHT22;35135;47.510;19.036;2023-02-01T06:34:27;19.90;47.30
35325;DHT22;35135;47.510;19.036;2023-02-01T06:36:53;19.90;47.30
35325;DHT22;35135;47.510;19.036;2023-02-01T06:39:19;19.90;47.30
35325;DHT22;35135;47.510;19.036;2023-02-01T06:41:49;19.90;47.40
35325;DHT22;35135;47.510;19.036;2023-02-01T06:44:15;19.90;47.40
35325;DHT22;35135;47.510;19.036;2023-02-01T06:46:42;19.90;47.50
35325;DHT22;35135;47.510;19.036;2023-02-01T06:49:07;19.90;47.60
35325;DHT22;35135;47.510;19.036;2023-02-01T06:51:34;19.80;47.50
35325;DHT22;35135;47.510;19.036;2023-02-01T06:54:00;19.80;47.40
35325;DHT22;35135;47.510;19.036;2023-02-01T06:56:27;19.80;47.40
35325;DHT22;35135;47.510;19.036;2023-02-01T06:58:53;19.80;46.90
35325;DHT22;35135;47.510;19.036;2023-02-01T07:01:19;19.80;47.10
35325;DHT22;35135;47.510;19.036;2023-02-01T07:03:49;19.80;47.00
35325;DHT22;35135;47.510;19.036;2023-02-01T07:06:16;19.80;46.90
35325;DHT22;35135;47.510;19.036;2023-02-01T07:08:42;19.80;47.20
35325;DHT22;35135;47.510;19.036;2023-02-01T07:11:11;19.70;47.20
35325;DHT22;35135;47.510;19.036;2023-02-01T07:13:37;19.80;47.30
35325;DHT22;35135;47.510;19.036;2023-02-01T07:16:05;19.80;47.40
35325;DHT22;35135;47.510;19.036;2023-02-01T07:18:32;19.80;47.50
35325;DHT22;35135;47.510;19.036;2023-02-01T07:20:58;19.80;47.60
35325;DHT22;35135;47.510;19.036;2023-02-01T07:23:25;19.80;47.50
35325;DHT22;35135;47.510;19.036;2023-02-01T07:25:56;19.80;47.50
35325;DHT22;35135;47.510;19.036;2023-02-01T07:28:23;19.80;47.50
35325;DHT22;35135;47.510;19.036;2023-02-01T07:30:49;19.80;47.50
35325;DHT22;35135;47.510;19.036;2023-02-01T07:33:21;19.90;47.50
35325;DHT22;35135;47.510;19.036;2023-02-01T07:35:48;19.80;47.40
35325;DHT22;35135;47.510;19.036;2023-02-01T07:38:14;19.80;47.10
35325;DHT22;35135;47.510;19.036;2023-02-01T07:40:40;19.80;47.00
35325;DHT22;35135;47.510;19.036;2023-02-01T07:43:06;19.90;47.00
35325;DHT22;35135;47.510;19.036;2023-02-01T07:45:33;19.80;46.90
35325;DHT22;35135;47.510;19.036;2023-02-01T07:47:59;20.00;46.80
35325;DHT22;35135;47.510;19.036;2023-02-01T07:50:25;20.00;46.70
35325;DHT22;35135;47.510;19.036;2023-02-01T07:52:50;20.00;46.60
35325;DHT22;35135;47.510;19.036;2023-02-01T07:55:16;20.00;46.50
35325;DHT22;35135;47.510;19.036;2023-02-01T07:57:42;20.00;46.40
35325;DHT22;35135;47.510;19.036;2023-02-01T08:00:08;20.00;46.60
35325;DHT22;35135;47.510;19.036;2023-02-01T08:02:52;20.00;46.60
35325;DHT22;35135;47.510;19.036;2023-02-01T08:05:18;20.00;46.50
35325;DHT22;35135;47.510;19.036;2023-02-01T08:07:48;20.00;46.50
35325;DHT22;35135;47.510;19.036;2023-02-01T08:10:15;20.00;46.50
35325;DHT22;35135;47.510;19.036;2023-02-01T08:12:40;19.90;46.50
35325;DHT22;35135;47.510;19.036;2023-02-01T08:15:06;20.00;46.60
35325;DHT22;35135;47.510;19.036;2023-02-01T08:17:32;19.90;46.40
35325;DHT22;35135;47.510;19.036;2023-02-01T08:19:58;19.90;46.60
35325;DHT22;35135;47.510;19.036;2023-02-01T08:22:23;19.90;46.60
35325;DHT22;35135;47.510;19.036;2023-02-01T08:24:49;19.90;46.70
35325;DHT22;35135;47.510;19.036;2023-02-01T08:27:15;19.90;46.60
35325;DHT22;35135;47.510;19.036;2023-02-01T08:29:41;19.90;46.50
35325;DHT22;35135;47.510;19.036;2023-02-01T08:32:06;19.90;46.50
35325;DHT22;35135;47.510;19.036;2023-02-01T08:34:32;19.90;46.60
35325;DHT22;35135;47.510;19.036;2023-02-01T08:36:58;19.90;46.70
35325;DHT22;35135;47.510;19.036;2023-02-01T08:39:25;19.90;46.50
35325;DHT22;35135;47.510;19.036;2023-02-01T08:41:50;19.80;46.60
35325;DHT22;35135;47.510;19.036;2023-02-01T08:44:35;19.80;46.50
35325;DHT22;35135;47.510;19.036;2023-02-01T08:47:01;19.80;46.50
35325;DHT22;35135;47.510;19.036;2023-02-01T08:49:27;19.80;46.40
35325;DHT22;35135;47.510;19.036;2023-02-01T08:51:52;19.80;46.30
35325;DHT22;35135;47.510;19.036;2023-02-01T08:54:18;19.80;46.40
35325;DHT22;35135;47.510;19.036;2023-02-01T08:56:44;19.80;46.40
35325;DHT22;35135;47.510;19.036;2023-02-01T08:59:10;19.80;46.40
35325;DHT22;35135;47.510;19.036;2023-02-01T09:01:35;19.80;46.40
35325;DHT22;35135;47.510;19.036;2023-02-01T09:04:01;19.80;46.40
35325;DHT22;35135;47.510;19.036;2023-02-01T09:06:26;19.80;46.40
35325;DHT22;35135;47.510;19.036;2023-02-01T09:08:52;19.80;46.30
35325;DHT22;35135;47.510;19.036;2023-02-01T09:11:18;19.80;46.40
35325;DHT22;35135;47.510;19.036;2023-02-01T09:13:48;19.80;46.40
35325;DHT22;35135;47.510;19.036;2023-02-01T09:16:14;19.80;46.40
35325;DHT22;35135;47.510;19.036;2023-02-01T09:18:40;19.90;46.30
35325;DHT22;35135;47.510;19.036;2023-02-01T09:21:06;19.90;46.30
35325;DHT22;35135;47.510;19.036;2023-02-01T09:23:33;19.80;46.10
35325;DHT22;35135;47.510;19.036;2023-02-01T09:26:00;19.80;46.20
35325;DHT22;35135;47.510;19.036;2023-02-01T09:28:26;19.80;46.20
35325;DHT22;35135;47.510;19.036;2023-02-01T09:30:56;19.80;46.00
35325;DHT22;35135;47.510;19.036;2023-02-01T09:33:22;19.90;46.10
35325;DHT22;35135;47.510;19.036;2023-02-01T09:35:49;19.90;46.30
35325;DHT22;35135;47.510;19.036;2023-02-01T09:38:15;19.90;46.30
35325;DHT22;35135;47.510;19.036;2023-02-01T09:40:46;19.90;46.30
35325;DHT22;35135;47.510;19.036;2023-02-01T09:43:34;19.90;46.00
35325;DHT22;35135;47.510;19.036;2023-02-01T09:48:38;19.90;46.30
35325;DHT22;35135;47.510;19.036;2023-02-01T09:51:16;19.90;46.30
35325;DHT22;35135;47.510;19.036;2023-02-01T09:53:46;19.80;46.20
35325;DHT22;35135;47.510;19.036;2023-02-01T09:56:26;19.80;46.20
35325;DHT22;35135;47.510;19.036;2023-02-01T09:59:26;19.90;46.20
35325;DHT22;35135;47.510;19.036;2023-02-01T10:01:56;19.80;46.10
35325;DHT22;35135;47.510;19.036;2023-02-01T10:04:22;19.80;46.00
35325;DHT22;35135;47.510;19.036;2023-02-01T10:09:51;19.80;46.00
35325;DHT22;35135;47.510;19.036;2023-02-01T10:25:57;19.90;45.90
35325;DHT22;35135;47.510;19.036;2023-02-01T10:28:25;19.90;45.90
35325;DHT22;35135;47.510;19.036;2023-02-01T10:30:56;19.80;45.80
35325;DHT22;35135;47.510;19.036;2023-02-01T10:33:26;19.90;46.00
35325;DHT22;35135;47.510;19.036;2023-02-01T10:35:58;19.80;46.00
35325;DHT22;35135;47.510;19.036;2023-02-01T10:38:29;19.80;46.00
35325;DHT22;35135;47.510;19.036;2023-02-01T10:41:09;19.80;46.00
35325;DHT22;35135;47.510;19.036;2023-02-01T10:43:37;19.90;46.10
35325;DHT22;35135;47.510;19.036;2023-02-01T10:46:04;19.90;45.90
35325;DHT22;35135;47.510;19.036;2023-02-01T10:48:31;19.80;45.90
35325;DHT22;35135;47.510;19.036;2023-02-01T10:51:03;19.80;45.80
35325;DHT22;35135;47.510;19.036;2023-02-01T10:53:55;19.80;45.90
35325;DHT22;35135;47.510;19.036;2023-02-01T10:56:25;19.80;45.90
35325;DHT22;35135;47.510;19.036;2023-02-01T10:58:50;19.80;45.70
35325;DHT22;35135;47.510;19.036;2023-02-01T11:01:23;19.90;45.80
35325;DHT22;35135;47.510;19.036;2023-02-01T11:03:54;19.90;45.80
35325;DHT22;35135;47.510;19.036;2023-02-01T11:06:28;19.90;45.90
35325;DHT22;35135;47.510;19.036;2023-02-01T11:11:55;19.90;45.70
35325;DHT22;35135;47.510;19.036;2023-02-01T11:16:59;19.90;45.70
35325;DHT22;35135;47.510;19.036;2023-02-01T11:19:28;19.90;45.70
35325;DHT22;35135;47.510;19.036;2023-02-01T11:21:56;19.90;45.80
35325;DHT22;35135;47.510;19.036;2023-02-01T11:24:26;19.90;45.80
35325;DHT22;35135;47.510;19.036;2023-02-01T11:26:57;19.90;45.70
35325;DHT22;35135;47.510;19.036;2023-02-01T11:29:26;19.80;45.80
35325;DHT22;35135;47.510;19.036;2023-02-01T11:31:59;19.80;45.70
35325;DHT22;35135;47.510;19.036;2023-02-01T11:34:36;19.90;45.70
35325;DHT22;35135;47.510;19.036;2023-02-01T11:37:03;19.80;45.80
35325;DHT22;35135;47.510;19.036;2023-02-01T11:39:31;19.90;45.90
35325;DHT22;35135;47.510;19.036;2023-02-01T11:42:15;19.80;45.80
35325;DHT22;35135;47.510;19.036;2023-02-01T11:44:43;19.80;45.80
35325;DHT22;35135;47.510;19.036;2023-02-01T11:47:27;19.80;45.80
35325;DHT22;35135;47.510;19.036;2023-02-01T11:49:59;19.80;45.90
35325;DHT22;35135;47.510;19.036;2023-02-01T12:19:34;19.70;46.10
35325;DHT22;35135;47.510;19.036;2023-02-01T12:22:29;19.80;46.20
35325;DHT22;35135;47.510;19.036;2023-02-01T12:36:46;19.70;46.30
35325;DHT22;35135;47.510;19.036;2023-02-01T12:39:37;19.70;46.30
35325;DHT22;35135;47.510;19.036;2023-02-01T12:42:16;19.70;46.30
35325;DHT22;35135;47.510;19.036;2023-02-01T12:47:34;19.70;46.30
35325;DHT22;35135;47.510;19.036;2023-02-01T12:52:37;19.70;46.40
35325;DHT22;35135;47.510;19.036;2023-02-01T12:57:46;19.70;46.30
35325;DHT22;35135;47.510;19.036;2023-02-01T13:00:20;19.70;46.30
35325;DHT22;35135;47.510;19.036;2023-02-01T13:03:13;19.70;46.30
35325;DHT22;35135;47.510;19.036;2023-02-01T13:08:26;19.70;46.20
35325;DHT22;35135;47.510;19.036;2023-02-01T13:11:03;19.70;46.10
35325;DHT22;35135;47.510;19.036;2023-02-01T13:16:27;19.70;46.10
35325;DHT22;35135;47.510;19.036;2023-02-01T13:19:02;19.70;46.10
35325;DHT22;35135;47.510;19.036;2023-02-01T13:21:33;19.80;46.20
35325;DHT22;35135;47.510;19.036;2023-02-01T13:23:59;19.70;46.00
35325;DHT22;35135;47.510;19.036;2023-02-01T13:26:25;19.70;46.20
35325;DHT22;35135;47.510;19.036;2023-02-01T13:28:58;19.70;46.30
35325;DHT22;35135;47.510;19.036;2023-02-01T13:34:29;19.70;46.30
35325;DHT22;35135;47.510;19.036;2023-02-01T13:42:23;19.70;46.30
35325;DHT22;35135;47.510;19.036;2023-02-01T13:44:52;19.70;46.40
35325;DHT22;35135;47.510;19.036;2023-02-01T13:49:50;19.70;46.60
35325;DHT22;35135;47.510;19.036;2023-02-01T13:52:34;19.60;46.60
35325;DHT22;35135;47.510;19.036;2023-02-01T13:57:47;19.70;46.70
35325;DHT22;35135;47.510;19.036;2023-02-01T14:03:10;19.70;46.70
35325;DHT22;35135;47.510;19.036;2023-02-01T14:10:53;19.70;46.70
35325;DHT22;35135;47.510;19.036;2023-02-01T14:13:30;19.70;46.80
35325;DHT22;35135;47.510;19.036;2023-02-01T14:21:33;19.70;46.60
35325;DHT22;35135;47.510;19.036;2023-02-01T14:26:47;19.70;46.60
35325;DHT22;35135;47.510;19.036;2023-02-01T14:34:35;19.70;46.70
35325;DHT22;35135;47.510;19.036;2023-02-01T14:37:10;19.70;46.80
35325;DHT22;35135;47.510;19.036;2023-02-01T14:42:26;19.70;46.80
35325;DHT22;35135;47.510;19.036;2023-02-01T14:44:53;19.70;46.80
35325;DHT22;35135;47.510;19.036;2023-02-01T14:50:07;19.70;46.90
35325;DHT22;35135;47.510;19.036;2023-02-01T14:55:25;19.70;46.90
35325;DHT22;35135;47.510;19.036;2023-02-01T14:57:54;19.70;46.90
35325;DHT22;35135;47.510;19.036;2023-02-01T15:00:27;19.70;46.90
35325;DHT22;35135;47.510;19.036;2023-02-01T15:02:56;19.70;47.20
35325;DHT22;35135;47.510;19.036;2023-02-01T15:05:37;19.70;46.90
35325;DHT22;35135;47.510;19.036;2023-02-01T15:08:44;19.70;46.90
35325;DHT22;35135;47.510;19.036;2023-02-01T15:11:14;19.70;46.90
35325;DHT22;35135;47.510;19.036;2023-02-01T15:13:40;19.70;47.00
35325;DHT22;35135;47.510;19.036;2023-02-01T15:16:14;19.70;47.00
35325;DHT22;35135;47.510;19.036;2023-02-01T15:18:41;19.70;47.00
35325;DHT22;35135;47.510;19.036;2023-02-01T15:21:21;19.70;47.00
35325;DHT22;35135;47.510;19.036;2023-02-01T15:23:48;19.70;47.00
35325;DHT22;35135;47.510;19.036;2023-02-01T15:26:34;19.70;47.00
35325;DHT22;35135;47.510;19.036;2023-02-01T15:29:01;19.70;47.00
35325;DHT22;35135;47.510;19.036;2023-02-01T15:31:40;19.70;47.00
35325;DHT22;35135;47.510;19.036;2023-02-01T15:34:06;19.70;47.10
35325;DHT22;35135;47.510;19.036;2023-02-01T15:36:32;19.70;47.10
35325;DHT22;35135;47.510;19.036;2023-02-01T15:41:38;19.70;47.30
35325;DHT22;35135;47.510;19.036;2023-02-01T15:44:21;19.70;47.30
35325;DHT22;35135;47.510;19.036;2023-02-01T15:46:52;19.70;47.40
35325;DHT22;35135;47.510;19.036;2023-02-01T15:49:23;19.70;47.50
35325;DHT22;35135;47.510;19.036;2023-02-01T15:51:50;19.70;48.10
35325;DHT22;35135;47.510;19.036;2023-02-01T15:54:31;19.70;47.60
35325;DHT22;35135;47.510;19.036;2023-02-01T15:57:02;19.70;47.60
35325;DHT22;35135;47.510;19.036;2023-02-01T15:59:32;19.70;47.30
35325;DHT22;35135;47.510;19.036;2023-02-01T16:02:02;19.70;47.60
35325;DHT22;35135;47.510;19.036;2023-02-01T16:04:29;19.60;47.50
35325;DHT22;35135;47.510;19.036;2023-02-01T16:07:28;19.60;47.50
35325;DHT22;35135;47.510;19.036;2023-02-01T16:09:57;19.60;47.40
35325;DHT22;35135;47.510;19.036;2023-02-01T16:15:04;19.60;47.60
35325;DHT22;35135;47.510;19.036;2023-02-01T16:17:30;19.70;47.90
35325;DHT22;35135;47.510;19.036;2023-02-01T16:19:56;19.70;47.90
35325;DHT22;35135;47.510;19.036;2023-02-01T16:22:23;19.70;48.00
35325;DHT22;35135;47.510;19.036;2023-02-01T16:24:49;19.80;48.00
35325;DHT22;35135;47.510;19.036;2023-02-01T16:27:15;19.90;48.30
35325;DHT22;35135;47.510;19.036;2023-02-01T16:29:40;20.00;48.50
35325;DHT22;35135;47.510;19.036;2023-02-01T16:32:09;20.20;48.80
35325;DHT22;35135;47.510;19.036;2023-02-01T16:34:39;20.30;48.70
35325;DHT22;35135;47.510;19.036;2023-02-01T16:37:05;20.50;48.80
35325;DHT22;35135;47.510;19.036;2023-02-01T16:39:35;20.60;48.90
35325;DHT22;35135;47.510;19.036;2023-02-01T16:42:00;20.70;48.80
35325;DHT22;35135;47.510;19.036;2023-02-01T16:44:30;20.70;48.50
35325;DHT22;35135;47.510;19.036;2023-02-01T16:46:56;20.70;48.40
35325;DHT22;35135;47.510;19.036;2023-02-01T16:49:24;20.80;48.50
35325;DHT22;35135;47.510;19.036;2023-02-01T16:51:51;20.80;49.10
35325;DHT22;35135;47.510;19.036;2023-02-01T16:54:20;20.80;48.50
35325;DHT22;35135;47.510;19.036;2023-02-01T16:56:46;20.70;48.50
35325;DHT22;35135;47.510;19.036;2023-02-01T16:59:12;20.70;48.70
35325;DHT22;35135;47.510;19.036;2023-02-01T17:01:38;20.70;48.60
35325;DHT22;35135;47.510;19.036;2023-02-01T17:04:06;20.70;48.60
35325;DHT22;35135;47.510;19.036;2023-02-01T17:06:32;20.70;48.70
35325;DHT22;35135;47.510;19.036;2023-02-01T17:08:59;20.70;48.50
35325;DHT22;35135;47.510;19.036;2023-02-01T17:11:26;20.60;48.20
35325;DHT22;35135;47.510;19.036;2023-02-01T17:13:56;20.60;48.10
35325;DHT22;35135;47.510;19.036;2023-02-01T17:16:27;20.50;48.00
35325;DHT22;35135;47.510;19.036;2023-02-01T17:19:03;20.50;47.90
35325;DHT22;35135;47.510;19.036;2023-02-01T17:21:44;20.50;47.90
35325;DHT22;35135;47.510;19.036;2023-02-01T17:24:13;20.50;47.90
35325;DHT22;35135;47.510;19.036;2023-02-01T17:26:40;20.50;47.80
35325;DHT22;35135;47.510;19.036;2023-02-01T17:29:06;20.40;47.90
35325;DHT22;35135;47.510;19.036;2023-02-01T17:31:35;20.40;47.90
35325;DHT22;35135;47.510;19.036;2023-02-01T17:34:01;20.40;47.90
35325;DHT22;35135;47.510;19.036;2023-02-01T17:36:27;20.40;48.00
35325;DHT22;35135;47.510;19.036;2023-02-01T17:38:53;20.30;48.00
35325;DHT22;35135;47.510;19.036;2023-02-01T17:41:18;20.30;48.10
35325;DHT22;35135;47.510;19.036;2023-02-01T17:43:44;20.30;48.10
35325;DHT22;35135;47.510;19.036;2023-02-01T17:46:14;20.30;48.20
35325;DHT22;35135;47.510;19.036;2023-02-01T17:48:41;20.30;48.30
35325;DHT22;35135;47.510;19.036;2023-02-01T17:51:17;20.30;48.40
35325;DHT22;35135;47.510;19.036;2023-02-01T17:53:43;20.30;48.40
35325;DHT22;35135;47.510;19.036;2023-02-01T17:56:20;20.30;48.50
35325;DHT22;35135;47.510;19.036;2023-02-01T17:58:47;20.30;48.50
35325;DHT22;35135;47.510;19.036;2023-02-01T18:01:17;20.30;48.70
35325;DHT22;35135;47.510;19.036;2023-02-01T18:03:43;20.30;48.90
35325;DHT22;35135;47.510;19.036;2023-02-01T18:06:13;20.30;49.00
35325;DHT22;35135;47.510;19.036;2023-02-01T18:08:39;20.30;48.80
35325;DHT22;35135;47.510;19.036;2023-02-01T18:11:08;20.30;49.40
35325;DHT22;35135;47.510;19.036;2023-02-01T18:13:34;20.30;48.60
35325;DHT22;35135;47.510;19.036;2023-02-01T18:16:00;20.20;48.10
35325;DHT22;35135;47.510;19.036;2023-02-01T18:18:26;20.00;48.30